createdAt,value
2022-08-07T00:00:03.599Z,1.9
2022-08-07T00:05:00.289Z,1.9
2022-08-07T00:10:26.557Z,1.9
2022-08-07T00:15:00.194Z,1.9
2022-08-07T00:20:03.244Z,1.6
2022-08-07T00:25:00.183Z,2.2
2022-08-07T00:30:00.253Z,2.2
2022-08-07T00:35:00.195Z,2.1
2022-08-07T00:40:00.382Z,2.2
2022-08-07T00:45:00.176Z,2.1
2022-08-07T00:50:19.508Z,1.9
2022-08-07T00:55:04.687Z,2.1
2022-08-07T01:00:00.232Z,2.2
2022-08-07T01:05:00.188Z,2.0
2022-08-07T01:10:05.777Z,2.2
2022-08-07T01:15:01.675Z,2.0
2022-08-07T01:20:00.180Z,2.2
2022-08-07T01:25:00.248Z,2.0
2022-08-07T01:30:00.604Z,2.3
2022-08-07T01:35:00.293Z,2.4
2022-08-07T01:40:00.303Z,2.4
2022-08-07T01:45:00.172Z,2.9
2022-08-07T01:50:00.617Z,2.9
2022-08-07T01:55:00.157Z,2.7
2022-08-07T02:00:00.232Z,2.5
2022-08-07T02:05:00.173Z,2.7
2022-08-07T02:10:00.181Z,2.6
2022-08-07T02:15:00.538Z,2.7
2022-08-07T02:20:05.587Z,2.8
2022-08-07T02:25:00.174Z,3.1
2022-08-07T02:30:00.192Z,3.5
2022-08-07T02:35:00.827Z,3.0
2022-08-07T02:40:02.475Z,2.9
2022-08-07T02:45:00.176Z,3.1
2022-08-07T02:50:00.372Z,3.0
2022-08-07T02:55:00.208Z,3.4
2022-08-07T03:00:01.120Z,3.6
2022-08-07T03:05:00.182Z,3.9
2022-08-07T03:10:00.196Z,3.7
2022-08-07T03:15:02.406Z,0.0
2022-08-07T03:20:00.208Z,3.0
2022-08-07T03:25:00.373Z,3.1
2022-08-07T03:30:00.199Z,2.9
2022-08-07T03:35:01.001Z,3.3
2022-08-07T03:40:15.829Z,3.5
2022-08-07T03:45:01.374Z,3.7
2022-08-07T03:50:00.176Z,3.5
2022-08-07T03:55:06.812Z,3.4
2022-08-07T04:00:01.810Z,3.6
2022-08-07T04:05:00.194Z,3.7
2022-08-07T04:10:02.834Z,3.7
2022-08-07T04:15:00.386Z,3.7
2022-08-07T04:20:00.193Z,3.7
2022-08-07T04:25:01.480Z,3.7
2022-08-07T04:30:02.447Z,4.2
2022-08-07T04:35:00.185Z,3.4
2022-08-07T04:40:00.338Z,4.4
2022-08-07T04:45:02.936Z,3.8
2022-08-07T04:50:04.131Z,3.8
2022-08-07T04:55:00.178Z,3.7
2022-08-07T05:00:12.491Z,3.9
2022-08-07T05:05:00.209Z,3.7
2022-08-07T05:10:00.772Z,4.4
2022-08-07T05:15:04.989Z,4.6
2022-08-07T05:20:00.189Z,5.0
2022-08-07T05:25:00.548Z,5.0
2022-08-07T05:30:00.213Z,5.5
2022-08-07T05:35:00.192Z,5.3
2022-08-07T05:40:05.966Z,5.4
2022-08-07T05:45:04.482Z,5.1
2022-08-07T05:50:00.207Z,5.1
2022-08-07T05:55:06.776Z,5.7
2022-08-07T06:00:01.172Z,5.9
2022-08-07T06:05:00.182Z,5.8
2022-08-07T06:10:05.147Z,5.6
2022-08-07T06:15:05.255Z,7.0
2022-08-07T06:20:04.118Z,6.5
2022-08-07T06:25:01.492Z,7.6
2022-08-07T06:30:00.216Z,6.3
2022-08-07T06:35:00.223Z,7.1
2022-08-07T06:40:13.249Z,7.5
2022-08-07T06:45:00.202Z,6.7
2022-08-07T06:50:00.225Z,6.2
2022-08-07T06:55:32.012Z,7.8
2022-08-07T07:00:11.806Z,7.5
2022-08-07T07:05:00.192Z,7.5
2022-08-07T07:10:00.220Z,7.7
2022-08-07T07:15:00.213Z,8.3
2022-08-07T07:20:00.190Z,7.7
2022-08-07T07:25:13.854Z,7.3
2022-08-07T07:30:09.699Z,7.4
2022-08-07T07:35:00.200Z,7.2
2022-08-07T07:40:00.207Z,7.1
2022-08-07T07:45:00.206Z,7.5
2022-08-07T07:50:35.612Z,7.0
2022-08-07T07:55:00.205Z,8.3
2022-08-07T08:00:00.233Z,6.6
2022-08-07T08:05:00.200Z,5.6
2022-08-07T08:10:05.005Z,5.3
2022-08-07T08:15:00.184Z,5.3
2022-08-07T08:20:22.517Z,3.7
2022-08-07T08:25:18.326Z,3.3
2022-08-07T08:30:02.835Z,4.5
2022-08-07T08:35:00.194Z,4.3
2022-08-07T08:40:00.301Z,4.6
2022-08-07T08:45:00.211Z,3.9
2022-08-07T08:50:04.779Z,3.3
2022-08-07T08:55:01.224Z,3.7
2022-08-07T09:00:00.292Z,3.6
2022-08-07T09:05:00.192Z,3.8
2022-08-07T09:10:03.200Z,3.2
2022-08-07T09:15:00.197Z,3.0
2022-08-07T09:20:00.204Z,3.6
2022-08-07T09:25:06.992Z,2.9
2022-08-07T09:30:05.419Z,2.7
2022-08-07T09:35:04.650Z,2.5
2022-08-07T09:40:00.329Z,2.6
2022-08-07T09:47:51.539Z,2.6
2022-08-07T09:50:18.846Z,2.8
2022-08-07T09:55:00.210Z,2.5
2022-08-07T10:00:00.928Z,2.6
2022-08-07T10:05:00.454Z,2.7
2022-08-07T10:10:03.025Z,2.7
2022-08-07T10:15:00.213Z,2.6
2022-08-07T10:20:00.205Z,2.7
2022-08-07T10:25:00.221Z,2.5
2022-08-07T10:30:00.219Z,2.5
2022-08-07T10:35:00.185Z,2.4
2022-08-07T10:40:05.895Z,2.6
2022-08-07T10:45:00.186Z,2.6
2022-08-07T10:50:00.169Z,2.7
2022-08-07T10:55:01.861Z,2.7
2022-08-07T11:00:00.209Z,2.7
2022-08-07T11:05:01.671Z,3.0
2022-08-07T11:10:09.101Z,3.9
2022-08-07T11:15:01.082Z,3.2
2022-08-07T11:20:03.189Z,2.3
2022-08-07T11:25:00.203Z,2.1
2022-08-07T11:30:17.682Z,1.8
2022-08-07T11:35:00.207Z,4.7
2022-08-07T11:40:03.458Z,13.3
2022-08-07T11:45:00.185Z,3.7
2022-08-07T11:50:30.711Z,2.5
2022-08-07T11:55:01.222Z,2.2
2022-08-07T12:00:10.940Z,2.1
2022-08-07T12:05:00.210Z,2.1
2022-08-07T12:10:02.213Z,2.0
2022-08-07T12:15:01.678Z,2.4
2022-08-07T12:20:05.541Z,2.2
2022-08-07T12:25:02.252Z,2.1
2022-08-07T12:30:00.181Z,2.1
2022-08-07T12:35:00.906Z,2.0
2022-08-07T12:40:00.262Z,1.9
2022-08-07T12:45:00.214Z,1.9
2022-08-07T12:50:04.571Z,1.8
2022-08-07T12:55:03.792Z,1.7
2022-08-07T13:00:00.240Z,1.6
2022-08-07T13:05:01.584Z,1.6
2022-08-07T13:10:38.214Z,1.8
2022-08-07T13:15:00.181Z,1.8
2022-08-07T13:20:00.207Z,1.9
2022-08-07T13:25:00.370Z,1.7
2022-08-07T13:30:03.641Z,1.5
2022-08-07T13:35:00.197Z,1.4
2022-08-07T13:40:35.675Z,1.5
2022-08-07T13:45:20.730Z,1.6
2022-08-07T13:50:33.762Z,1.6
2022-08-07T13:55:00.580Z,1.3
2022-08-07T14:00:00.351Z,1.5
2022-08-07T14:05:00.237Z,1.6
2022-08-07T14:10:12.169Z,1.7
2022-08-07T14:15:00.213Z,1.9
2022-08-07T14:20:40.308Z,3.0
2022-08-07T14:25:00.241Z,2.9
2022-08-07T14:30:07.714Z,2.2
2022-08-07T14:35:00.175Z,2.4
2022-08-07T14:40:17.301Z,1.9
2022-08-07T14:45:22.363Z,1.9
2022-08-07T14:50:00.298Z,1.7
2022-08-07T14:55:00.202Z,1.6
2022-08-07T15:00:05.405Z,1.6
2022-08-07T15:05:01.628Z,1.5
2022-08-07T15:10:04.724Z,1.0
2022-08-07T15:15:00.197Z,1.1
2022-08-07T15:20:33.796Z,1.6
2022-08-07T15:25:13.547Z,1.3
2022-08-07T15:30:04.879Z,1.3
2022-08-07T15:35:00.200Z,1.4
2022-08-07T15:40:00.189Z,1.2
2022-08-07T15:45:00.193Z,1.2
2022-08-07T15:50:05.668Z,1.0
2022-08-07T15:55:02.381Z,0.8
2022-08-07T16:00:04.538Z,0.6
2022-08-07T16:05:00.256Z,0.8
2022-08-07T16:10:00.244Z,1.0
2022-08-07T16:15:00.169Z,1.0
2022-08-07T16:20:00.298Z,1.3
2022-08-07T16:25:00.206Z,1.0
2022-08-07T16:30:11.112Z,1.2
2022-08-07T16:35:00.203Z,1.1
2022-08-07T16:40:00.336Z,1.2
2022-08-07T16:45:15.296Z,1.3
2022-08-07T16:50:20.505Z,0.0
2022-08-07T16:55:03.140Z,1.5
2022-08-07T17:00:00.252Z,1.6
2022-08-07T17:05:00.216Z,1.6
2022-08-07T17:10:08.283Z,1.5
2022-08-07T17:15:00.265Z,1.4
2022-08-07T17:20:02.361Z,1.5
2022-08-07T17:25:00.204Z,1.5
2022-08-07T17:30:14.323Z,1.4
2022-08-07T17:35:50.558Z,1.3
2022-08-07T17:40:08.130Z,1.4
2022-08-07T17:45:00.202Z,1.6
2022-08-07T17:50:00.204Z,1.5
2022-08-07T17:55:00.240Z,2.2
2022-08-07T18:00:00.235Z,1.6
2022-08-07T18:05:00.202Z,1.8
2022-08-07T18:10:06.174Z,1.9
2022-08-07T18:15:00.188Z,1.7
2022-08-07T18:21:08.887Z,1.6
2022-08-07T18:25:00.216Z,1.8
2022-08-07T18:30:05.930Z,1.9
2022-08-07T18:35:01.675Z,2.1
2022-08-07T18:40:08.172Z,2.0
2022-08-07T18:45:43.304Z,2.9
2022-08-07T18:50:31.094Z,1.8
2022-08-07T18:55:08.403Z,2.7
2022-08-07T19:00:00.487Z,2.4
2022-08-07T19:05:15.153Z,2.7
2022-08-07T19:10:00.196Z,2.4
2022-08-07T19:15:00.535Z,2.7
2022-08-07T19:20:00.191Z,2.2
2022-08-07T19:25:06.531Z,2.1
2022-08-07T19:31:04.782Z,2.3
2022-08-07T19:35:00.196Z,3.6
2022-08-07T19:40:01.935Z,3.9
2022-08-07T19:45:00.519Z,2.6
2022-08-07T19:50:02.762Z,2.3
2022-08-07T19:55:00.186Z,2.7
2022-08-07T20:00:00.240Z,2.9
2022-08-07T20:05:00.316Z,2.7
2022-08-07T20:10:38.130Z,4.1
2022-08-07T20:15:00.173Z,2.7
2022-08-07T20:20:00.601Z,3.1
2022-08-07T20:25:00.190Z,2.7
2022-08-07T20:30:00.509Z,3.4
2022-08-07T20:35:00.184Z,2.8
2022-08-07T20:40:03.005Z,2.9
2022-08-07T20:45:00.181Z,3.1
2022-08-07T20:50:02.340Z,3.3
2022-08-07T20:55:00.182Z,3.3
2022-08-07T21:00:07.543Z,2.9
2022-08-07T21:05:00.164Z,2.2
2022-08-07T21:10:00.823Z,2.9
2022-08-07T21:15:00.934Z,3.0
2022-08-07T21:20:04.995Z,2.9
2022-08-07T21:25:00.205Z,3.2
2022-08-07T21:30:00.188Z,3.2
2022-08-07T21:35:00.187Z,3.1
2022-08-07T21:40:00.274Z,3.0
2022-08-07T21:45:00.174Z,4.0
2022-08-07T21:50:01.991Z,3.6
2022-08-07T21:55:00.182Z,3.7
2022-08-07T22:00:04.331Z,3.6
2022-08-07T22:05:00.215Z,3.5
2022-08-07T22:10:00.455Z,3.9
2022-08-07T22:15:00.604Z,4.0
2022-08-07T22:20:00.191Z,4.1
2022-08-07T22:25:00.178Z,4.0
2022-08-07T22:30:00.181Z,3.7
2022-08-07T22:35:00.210Z,3.6
2022-08-07T22:40:00.288Z,4.1
2022-08-07T22:45:02.358Z,3.8
2022-08-07T22:50:00.181Z,3.7
2022-08-07T22:55:00.214Z,4.0
2022-08-07T23:00:00.202Z,3.9
2022-08-07T23:06:06.895Z,3.9
2022-08-07T23:10:04.436Z,3.6
2022-08-07T23:15:00.183Z,3.9
2022-08-07T23:20:03.139Z,3.5
2022-08-07T23:25:00.173Z,3.8
2022-08-07T23:30:36.146Z,4.1
2022-08-07T23:35:01.072Z,3.6
2022-08-07T23:40:00.388Z,4.4
2022-08-07T23:45:00.185Z,4.8
2022-08-07T23:50:00.176Z,4.0
2022-08-07T23:55:00.181Z,4.3
